Terminal Aerodrome Forecast
Issued by NWS Billings, MT

Home | Current Version | Previous Version | Text Only | Print | Product List | Glossary Off
Versions: 1 2 3 4 5 6 7 8 9 10 11 12 13 14 15

000
FTUS45 KBYZ 222321
TAFMLS
TAF
KMLS 222321Z 2300/2324 VRB06KT P6SM VCSH SCT050 SCT200
     FM230300 29008KT P6SM FEW050 SCT150
     FM231300 26018G26KT P6SM SCT050
     FM232200 23014G22KT P6SM VCSH SCT050=

USA.gov is the U.S. government's official web portal to all federal, state and local government web resources and services.